createdAt,value
2018-12-12T00:00:01.023Z,5.95
2018-12-12T00:01:01.044Z,5.94
2018-12-12T00:02:01.074Z,5.97
2018-12-12T00:03:01.090Z,5.98
2018-12-12T00:04:01.095Z,6.05
2018-12-12T00:05:22.143Z,5.98
2018-12-12T00:06:01.155Z,5.92
2018-12-12T00:07:01.174Z,5.97
2018-12-12T00:08:01.204Z,6.02
2018-12-12T00:09:01.210Z,5.84
2018-12-12T00:10:01.226Z,5.92
2018-12-12T00:11:22.265Z,5.94
2018-12-12T00:12:01.288Z,5.91
2018-12-12T00:13:01.283Z,5.95
2018-12-12T00:14:01.317Z,5.90
2018-12-12T00:15:01.329Z,5.87
2018-12-12T00:16:01.381Z,5.95
2018-12-12T00:17:22.385Z,5.88
2018-12-12T00:18:01.378Z,5.99
2018-12-12T00:19:01.400Z,5.95
2018-12-12T00:20:01.450Z,6.07
2018-12-12T00:21:01.446Z,5.98
2018-12-12T00:22:01.466Z,6.07
2018-12-12T00:23:22.526Z,5.97
2018-12-12T00:24:01.497Z,5.97
2018-12-12T00:25:01.520Z,5.91
2018-12-12T00:26:01.533Z,5.95
2018-12-12T00:27:01.562Z,5.90
2018-12-12T00:28:01.593Z,5.87
2018-12-12T00:29:22.632Z,5.94
2018-12-12T00:30:01.634Z,6.01
2018-12-12T00:31:01.630Z,6.01
2018-12-12T00:32:01.658Z,5.95
2018-12-12T00:33:01.665Z,6.01
2018-12-12T00:34:01.699Z,6.09
2018-12-12T00:35:22.738Z,5.88
2018-12-12T00:36:01.735Z,5.97
2018-12-12T00:37:01.761Z,5.90
2018-12-12T00:38:01.772Z,5.87
2018-12-12T00:39:01.803Z,5.97
2018-12-12T00:40:01.826Z,6.01
2018-12-12T00:41:22.853Z,6.07
2018-12-12T00:42:01.870Z,5.98
2018-12-12T00:43:01.870Z,5.95
2018-12-12T00:44:01.888Z,5.99
2018-12-12T00:45:01.924Z,5.91
2018-12-12T00:46:01.930Z,5.88
2018-12-12T00:47:22.974Z,5.94
2018-12-12T00:48:01.971Z,6.02
2018-12-12T00:49:01.991Z,5.97
2018-12-12T00:50:02.006Z,5.97
2018-12-12T00:51:02.027Z,5.91
2018-12-12T00:52:02.041Z,5.99
2018-12-12T00:53:23.079Z,5.88
2018-12-12T00:54:02.079Z,5.97
2018-12-12T00:55:02.102Z,6.01
2018-12-12T00:56:02.130Z,5.98
2018-12-12T00:57:02.145Z,5.99
2018-12-12T00:58:02.164Z,5.94
2018-12-12T00:59:23.235Z,5.97
2018-12-12T01:00:02.201Z,5.92
2018-12-12T01:01:02.223Z,5.94
2018-12-12T01:02:02.271Z,5.91
2018-12-12T01:03:02.261Z,5.98
2018-12-12T01:04:02.283Z,5.97
2018-12-12T01:05:23.318Z,5.95
2018-12-12T01:06:02.310Z,5.95
2018-12-12T01:07:02.337Z,5.98
2018-12-12T01:08:02.360Z,6.01
2018-12-12T01:09:02.388Z,5.94
2018-12-12T01:10:02.405Z,5.91
2018-12-12T01:11:23.437Z,6.05
2018-12-12T01:12:02.439Z,5.97
2018-12-12T01:13:02.467Z,5.98
2018-12-12T01:14:02.471Z,5.97
2018-12-12T01:15:02.491Z,6.02
2018-12-12T01:16:02.534Z,5.99
2018-12-12T01:17:23.555Z,5.95
2018-12-12T01:18:02.545Z,5.99
2018-12-12T01:19:02.571Z,5.94
2018-12-12T01:20:02.621Z,5.94
2018-12-12T01:21:02.625Z,5.97
2018-12-12T01:22:02.624Z,5.97
2018-12-12T01:23:23.672Z,5.94
2018-12-12T01:24:02.678Z,5.94
2018-12-12T01:25:02.683Z,5.99
2018-12-12T01:26:02.708Z,5.94
2018-12-12T01:27:02.735Z,5.98
2018-12-12T01:28:02.758Z,5.95
2018-12-12T01:29:23.794Z,5.98
2018-12-12T01:30:02.784Z,5.91
2018-12-12T01:31:02.814Z,6.07
2018-12-12T01:32:02.830Z,6.01
2018-12-12T01:33:02.846Z,6.09
2018-12-12T01:34:02.868Z,6.09
2018-12-12T01:35:23.905Z,5.90
2018-12-12T01:36:02.938Z,5.94
2018-12-12T01:37:02.931Z,5.90
2018-12-12T01:38:02.936Z,5.92
2018-12-12T01:39:03.070Z,5.94
2018-12-12T01:40:02.986Z,5.94
2018-12-12T01:41:24.009Z,5.98
2018-12-12T01:42:03.026Z,5.84
2018-12-12T01:43:03.043Z,5.92
2018-12-12T01:44:03.067Z,5.83
2018-12-12T01:45:03.082Z,5.83
2018-12-12T01:46:03.103Z,5.87
2018-12-12T01:47:24.139Z,5.94
2018-12-12T01:48:03.139Z,5.91
2018-12-12T01:49:03.162Z,5.94
2018-12-12T01:50:03.180Z,5.95
2018-12-12T01:51:03.194Z,5.92
2018-12-12T01:52:03.235Z,5.98
2018-12-12T01:53:24.255Z,5.98
2018-12-12T01:54:03.252Z,5.92
2018-12-12T01:55:03.294Z,5.98
2018-12-12T01:56:03.304Z,6.05
2018-12-12T01:57:03.320Z,6.01
2018-12-12T01:58:03.341Z,5.99
2018-12-12T01:59:24.370Z,5.98
2018-12-12T02:00:03.383Z,6.06
2018-12-12T02:01:03.402Z,6.05
2018-12-12T02:02:03.409Z,6.02
2018-12-12T02:03:03.436Z,6.10
2018-12-12T02:04:03.469Z,6.05
2018-12-12T02:05:24.515Z,6.13
2018-12-12T02:06:03.501Z,6.01
2018-12-12T02:07:03.511Z,6.07
2018-12-12T02:08:03.553Z,6.07
2018-12-12T02:09:03.556Z,6.02
2018-12-12T02:10:03.579Z,6.13
2018-12-12T02:11:24.609Z,6.15
2018-12-12T02:12:03.614Z,6.17
2018-12-12T02:13:03.629Z,6.16
2018-12-12T02:14:03.662Z,6.15
2018-12-12T02:15:03.666Z,6.10
2018-12-12T02:16:03.695Z,6.10
2018-12-12T02:17:24.723Z,6.07
2018-12-12T02:18:03.741Z,5.98
2018-12-12T02:19:03.753Z,5.98
2018-12-12T02:20:03.770Z,5.98
2018-12-12T02:21:03.786Z,5.94
2018-12-12T02:22:03.818Z,6.13
2018-12-12T02:23:24.842Z,5.97
2018-12-12T02:24:03.841Z,6.09
2018-12-12T02:25:03.850Z,6.10
2018-12-12T02:26:03.888Z,6.05
2018-12-12T02:27:03.900Z,6.07
2018-12-12T02:28:03.922Z,6.05
2018-12-12T02:29:24.967Z,6.06
2018-12-12T02:30:03.969Z,6.02
2018-12-12T02:31:03.984Z,6.10
2018-12-12T02:32:03.997Z,6.09
2018-12-12T02:33:04.055Z,6.10
2018-12-12T02:34:04.039Z,6.16
2018-12-12T02:35:27.117Z,6.12
2018-12-12T02:36:04.085Z,6.07
2018-12-12T02:37:04.117Z,6.17
2018-12-12T02:38:04.124Z,6.19
2018-12-12T02:39:04.150Z,6.16
2018-12-12T02:40:04.150Z,6.06
2018-12-12T02:41:25.194Z,6.06
2018-12-12T02:42:04.206Z,6.02
2018-12-12T02:43:04.217Z,6.09
2018-12-12T02:44:04.243Z,6.16
2018-12-12T02:45:04.253Z,6.12
2018-12-12T02:46:04.283Z,6.13
2018-12-12T02:47:25.361Z,6.09
2018-12-12T02:48:04.313Z,6.05
2018-12-12T02:49:04.354Z,6.05
2018-12-12T02:50:04.358Z,6.09
2018-12-12T02:51:04.375Z,6.07
2018-12-12T02:52:04.399Z,6.05
2018-12-12T02:53:25.434Z,6.02
2018-12-12T02:54:04.456Z,6.09
2018-12-12T02:55:04.453Z,6.25
2018-12-12T02:56:04.471Z,6.09
2018-12-12T02:57:04.515Z,6.15
2018-12-12T02:58:04.512Z,6.17
2018-12-12T02:59:25.548Z,6.13
2018-12-12T03:00:04.554Z,6.02
2018-12-12T03:01:04.573Z,6.01
2018-12-12T03:02:04.594Z,6.06
2018-12-12T03:03:04.615Z,6.05
2018-12-12T03:04:04.624Z,5.99
2018-12-12T03:05:25.673Z,6.12
2018-12-12T03:06:04.673Z,6.02
2018-12-12T03:07:04.703Z,6.05
2018-12-12T03:08:04.731Z,6.10
2018-12-12T03:09:04.727Z,6.19
2018-12-12T03:10:04.762Z,6.13
2018-12-12T03:11:25.791Z,6.10
2018-12-12T03:12:04.789Z,6.13
2018-12-12T03:13:04.826Z,6.16
2018-12-12T03:14:04.829Z,6.13
2018-12-12T03:15:04.842Z,6.13
2018-12-12T03:16:04.888Z,6.15
2018-12-12T03:17:25.916Z,6.13
2018-12-12T03:18:04.931Z,6.06
2018-12-12T03:19:04.949Z,6.13
2018-12-12T03:20:07.729Z,6.20
2018-12-12T03:21:04.966Z,6.20
2018-12-12T03:22:04.978Z,6.19
2018-12-12T03:23:26.020Z,6.20
2018-12-12T03:24:05.052Z,6.10
2018-12-12T03:25:05.050Z,6.16
2018-12-12T03:26:05.076Z,6.07
2018-12-12T03:27:05.086Z,6.12
2018-12-12T03:28:05.101Z,6.12
2018-12-12T03:29:26.160Z,6.13
2018-12-12T03:30:05.155Z,6.09
2018-12-12T03:31:05.170Z,6.06
2018-12-12T03:32:05.201Z,6.02
2018-12-12T03:33:05.205Z,6.07
2018-12-12T03:34:05.235Z,5.99
2018-12-12T03:35:27.287Z,6.09
2018-12-12T03:36:05.267Z,6.10
2018-12-12T03:37:05.299Z,6.10
2018-12-12T03:38:05.321Z,6.10
2018-12-12T03:39:05.318Z,6.09
2018-12-12T03:40:05.350Z,6.13
2018-12-12T03:41:26.373Z,6.16
2018-12-12T03:42:05.377Z,6.16
2018-12-12T03:43:05.397Z,6.13
2018-12-12T03:44:05.446Z,6.19
2018-12-12T03:45:05.432Z,6.10
2018-12-12T03:46:05.451Z,6.16
2018-12-12T03:47:26.487Z,6.09
2018-12-12T03:48:05.501Z,6.02
2018-12-12T03:49:05.512Z,6.10
2018-12-12T03:50:05.540Z,6.06
2018-12-12T03:51:05.547Z,6.13
2018-12-12T03:52:05.588Z,6.02
2018-12-12T03:53:26.615Z,6.13
2018-12-12T03:54:05.616Z,6.16
2018-12-12T03:55:05.641Z,6.02
2018-12-12T03:56:05.652Z,6.13
2018-12-12T03:57:05.678Z,6.16
2018-12-12T03:58:05.690Z,6.20
2018-12-12T03:59:26.736Z,6.17
2018-12-12T04:00:05.752Z,6.20
2018-12-12T04:01:05.804Z,6.15
2018-12-12T04:02:05.794Z,6.12
2018-12-12T04:03:05.801Z,6.07
2018-12-12T04:04:05.815Z,6.09
2018-12-12T04:05:26.856Z,6.01
2018-12-12T04:06:05.853Z,6.09
2018-12-12T04:07:05.880Z,6.06
2018-12-12T04:08:05.903Z,6.06
2018-12-12T04:09:05.908Z,6.31
2018-12-12T04:10:05.949Z,6.22
2018-12-12T04:11:26.971Z,6.22
2018-12-12T04:12:05.975Z,6.13
2018-12-12T04:13:05.989Z,6.10
2018-12-12T04:14:06.015Z,6.12
2018-12-12T04:15:06.023Z,6.16
2018-12-12T04:16:06.044Z,6.10
2018-12-12T04:17:27.092Z,6.25
2018-12-12T04:18:06.077Z,6.25
2018-12-12T04:19:06.129Z,6.31
2018-12-12T04:20:06.152Z,6.15
2018-12-12T04:21:06.147Z,6.09
2018-12-12T04:22:06.162Z,6.26
2018-12-12T04:23:27.208Z,6.05
2018-12-12T04:24:06.200Z,6.16
2018-12-12T04:25:06.234Z,6.10
2018-12-12T04:26:06.235Z,6.13
2018-12-12T04:27:06.278Z,6.13
2018-12-12T04:28:06.296Z,6.09
2018-12-12T04:29:27.319Z,6.13
2018-12-12T04:30:06.328Z,6.10
2018-12-12T04:31:06.339Z,6.15
2018-12-12T04:32:06.358Z,6.09
2018-12-12T04:33:06.389Z,6.15
2018-12-12T04:34:06.398Z,6.15
2018-12-12T04:35:27.434Z,6.13
2018-12-12T04:36:06.444Z,6.05
2018-12-12T04:37:06.455Z,6.26
2018-12-12T04:38:06.495Z,6.16
2018-12-12T04:39:06.502Z,6.12
2018-12-12T04:40:06.556Z,6.15
2018-12-12T04:41:27.582Z,5.99
2018-12-12T04:42:06.564Z,5.97
2018-12-12T04:43:06.591Z,5.91
2018-12-12T04:44:06.626Z,5.91
2018-12-12T04:45:06.614Z,5.92
2018-12-12T04:46:06.684Z,5.97
2018-12-12T04:47:27.674Z,5.95
2018-12-12T04:48:06.668Z,5.94
2018-12-12T04:49:06.766Z,5.88
2018-12-12T04:50:06.723Z,5.90
2018-12-12T04:51:06.757Z,5.91
2018-12-12T04:52:06.762Z,5.88
2018-12-12T04:53:27.810Z,5.87
2018-12-12T04:54:07.065Z,5.95
2018-12-12T04:55:06.835Z,6.02
2018-12-12T04:56:06.848Z,5.92
2018-12-12T04:57:06.934Z,5.90
2018-12-12T04:58:06.887Z,5.92
2018-12-12T04:59:27.913Z,5.88
2018-12-12T05:00:07.065Z,5.81
2018-12-12T05:01:06.941Z,5.90
2018-12-12T05:02:06.993Z,5.87
2018-12-12T05:03:06.993Z,5.84
2018-12-12T05:04:07.020Z,5.84
2018-12-12T05:05:28.030Z,5.98
2018-12-12T05:06:07.045Z,5.95
2018-12-12T05:07:07.056Z,6.05
2018-12-12T05:08:07.086Z,6.05
2018-12-12T05:09:07.100Z,5.99
2018-12-12T05:10:07.131Z,5.98
2018-12-12T05:11:28.145Z,5.91
2018-12-12T05:12:07.152Z,5.90
2018-12-12T05:13:07.205Z,5.80
2018-12-12T05:14:07.196Z,5.81
2018-12-12T05:15:07.196Z,5.84
2018-12-12T05:16:07.236Z,5.80
2018-12-12T05:17:28.264Z,5.83
2018-12-12T05:18:07.262Z,5.83
2018-12-12T05:19:07.318Z,5.73
2018-12-12T05:20:07.307Z,5.72
2018-12-12T05:21:07.326Z,5.70
2018-12-12T05:22:07.340Z,5.64
2018-12-12T05:23:28.413Z,5.61
2018-12-12T05:24:07.389Z,5.61
2018-12-12T05:25:07.481Z,5.77
2018-12-12T05:26:07.419Z,5.70
2018-12-12T05:27:07.494Z,5.73
2018-12-12T05:28:07.479Z,5.62
2018-12-12T05:29:28.501Z,5.76
2018-12-12T05:30:07.523Z,5.69
2018-12-12T05:31:07.555Z,5.65
2018-12-12T05:32:07.553Z,5.56
2018-12-12T05:33:07.567Z,5.61
2018-12-12T05:34:07.587Z,5.62
2018-12-12T05:35:28.617Z,5.59
2018-12-12T05:36:07.621Z,5.69
2018-12-12T05:37:07.660Z,5.62
2018-12-12T05:38:07.684Z,5.70
2018-12-12T05:39:07.683Z,5.79
2018-12-12T05:40:07.697Z,5.81
2018-12-12T05:41:28.748Z,5.99
2018-12-12T05:42:07.770Z,5.97
2018-12-12T05:43:07.780Z,5.79
2018-12-12T05:44:07.785Z,5.90
2018-12-12T05:45:07.795Z,5.80
2018-12-12T05:46:07.821Z,5.79
2018-12-12T05:47:28.859Z,5.94
2018-12-12T05:48:07.849Z,5.87
2018-12-12T05:49:07.885Z,5.87
2018-12-12T05:50:07.897Z,5.74
2018-12-12T05:51:07.935Z,5.72
2018-12-12T05:52:07.939Z,5.64
2018-12-12T05:53:28.969Z,5.64
2018-12-12T05:54:07.971Z,5.58
2018-12-12T05:55:07.993Z,5.67
2018-12-12T05:56:13.894Z,5.79
2018-12-12T05:57:08.051Z,5.72
2018-12-12T05:58:08.053Z,5.80
2018-12-12T05:59:29.114Z,5.72
2018-12-12T06:00:08.145Z,5.67
2018-12-12T06:01:08.245Z,5.76
2018-12-12T06:02:08.151Z,5.69
2018-12-12T06:03:08.156Z,5.67
2018-12-12T06:04:08.168Z,5.46
2018-12-12T06:05:29.205Z,5.44
2018-12-12T06:06:08.235Z,5.51
2018-12-12T06:07:08.652Z,5.44
2018-12-12T06:08:08.252Z,5.64
2018-12-12T06:09:08.515Z,5.58
2018-12-12T06:10:08.366Z,5.62
2018-12-12T06:11:29.324Z,5.52
2018-12-12T06:12:08.370Z,5.52
2018-12-12T06:13:08.394Z,5.43
2018-12-12T06:14:09.544Z,5.51
2018-12-12T06:15:08.412Z,5.47
2018-12-12T06:16:08.521Z,5.51
2018-12-12T06:17:29.440Z,5.43
2018-12-12T06:18:08.499Z,5.52
2018-12-12T06:19:08.469Z,5.52
2018-12-12T06:20:08.494Z,5.34
2018-12-12T06:21:08.529Z,5.34
2018-12-12T06:22:08.519Z,5.46
2018-12-12T06:23:29.576Z,5.49
2018-12-12T06:24:08.568Z,5.38
2018-12-12T06:25:08.599Z,5.51
2018-12-12T06:26:08.623Z,5.44
2018-12-12T06:27:08.623Z,5.43
2018-12-12T06:28:08.639Z,5.59
2018-12-12T06:29:29.702Z,5.44
2018-12-12T06:30:08.677Z,5.69
2018-12-12T06:31:08.693Z,5.69
2018-12-12T06:32:08.722Z,5.58
2018-12-12T06:33:08.753Z,5.59
2018-12-12T06:34:08.788Z,5.54
2018-12-12T06:35:29.810Z,5.59
2018-12-12T06:36:08.798Z,5.61
2018-12-12T06:37:08.867Z,5.59
2018-12-12T06:38:08.838Z,5.64
2018-12-12T06:39:08.870Z,5.64
2018-12-12T06:40:08.870Z,5.61
2018-12-12T06:41:29.978Z,5.67
2018-12-12T06:42:08.909Z,5.67
2018-12-12T06:43:08.926Z,5.70
2018-12-12T06:44:08.948Z,5.55
2018-12-12T06:45:08.981Z,5.61
2018-12-12T06:46:08.979Z,5.64
2018-12-12T06:47:30.019Z,5.67
2018-12-12T06:48:09.030Z,5.64
2018-12-12T06:49:09.056Z,5.51
2018-12-12T06:50:09.112Z,5.49
2018-12-12T06:51:09.166Z,5.56
2018-12-12T06:52:09.105Z,5.58
2018-12-12T06:53:30.144Z,5.65
2018-12-12T06:54:09.143Z,5.65
2018-12-12T06:55:09.159Z,5.64
2018-12-12T06:56:09.189Z,5.64
2018-12-12T06:57:09.201Z,5.54
2018-12-12T06:58:09.235Z,5.58
2018-12-12T06:59:30.261Z,5.52
2018-12-12T07:00:09.271Z,5.56
2018-12-12T07:01:09.279Z,5.62
2018-12-12T07:02:09.296Z,5.58
2018-12-12T07:03:09.311Z,5.47
2018-12-12T07:04:09.417Z,5.46
2018-12-12T07:05:30.389Z,5.46
2018-12-12T07:06:09.390Z,5.58
2018-12-12T07:07:09.407Z,5.61
2018-12-12T07:08:09.413Z,5.46
2018-12-12T07:09:09.465Z,5.52
2018-12-12T07:10:09.470Z,5.54
2018-12-12T07:11:30.500Z,5.43
2018-12-12T07:12:09.504Z,5.49
2018-12-12T07:13:09.526Z,5.40
2018-12-12T07:14:09.534Z,5.34
2018-12-12T07:15:09.559Z,5.43
2018-12-12T07:16:09.573Z,5.51
2018-12-12T07:17:30.602Z,5.41
2018-12-12T07:18:09.624Z,5.51
2018-12-12T07:19:09.626Z,5.56
2018-12-12T07:20:09.640Z,5.52
2018-12-12T07:21:09.687Z,5.46
2018-12-12T07:22:09.693Z,5.44
2018-12-12T07:23:30.723Z,5.49
2018-12-12T07:24:09.728Z,5.51
2018-12-12T07:25:09.751Z,5.52
2018-12-12T07:26:09.782Z,5.51
2018-12-12T07:27:09.787Z,5.55
2018-12-12T07:28:09.795Z,5.67
2018-12-12T07:29:30.837Z,5.67
2018-12-12T07:30:09.841Z,5.59
2018-12-12T07:31:09.860Z,5.64
2018-12-12T07:32:10.043Z,5.69
2018-12-12T07:33:09.912Z,5.72
2018-12-12T07:34:09.936Z,5.62
2018-12-12T07:35:30.962Z,5.62
2018-12-12T07:36:09.953Z,5.61
2018-12-12T07:37:09.991Z,5.74
2018-12-12T07:38:10.006Z,5.74
2018-12-12T07:39:10.032Z,5.77
2018-12-12T07:40:10.046Z,5.70
2018-12-12T07:41:31.086Z,5.83
2018-12-12T07:42:10.072Z,5.74
2018-12-12T07:43:10.137Z,5.76
2018-12-12T07:44:10.114Z,5.65
2018-12-12T07:45:10.158Z,5.77
2018-12-12T07:46:10.166Z,5.70
2018-12-12T07:47:31.201Z,5.74
2018-12-12T07:48:10.246Z,5.72
2018-12-12T07:49:10.328Z,5.62
2018-12-12T07:50:10.239Z,5.59
2018-12-12T07:51:10.303Z,5.59
2018-12-12T07:52:10.267Z,5.69
2018-12-12T07:53:31.316Z,5.65
2018-12-12T07:54:10.368Z,5.59
2018-12-12T07:55:10.337Z,5.58
2018-12-12T07:56:10.341Z,5.69
2018-12-12T07:57:10.371Z,5.61
2018-12-12T07:58:10.385Z,5.67
2018-12-12T07:59:31.421Z,5.67
2018-12-12T08:00:10.434Z,5.64
2018-12-12T08:01:10.473Z,5.56
2018-12-12T08:02:10.482Z,5.67
2018-12-12T08:03:10.490Z,5.74
2018-12-12T08:04:10.506Z,5.83
2018-12-12T08:05:31.553Z,5.70
2018-12-12T08:06:10.546Z,5.79
2018-12-12T08:07:10.558Z,5.72
2018-12-12T08:08:10.600Z,5.70
2018-12-12T08:09:10.605Z,5.74
2018-12-12T08:10:10.638Z,5.73
2018-12-12T08:11:31.680Z,5.73
2018-12-12T08:12:10.662Z,5.72
2018-12-12T08:13:10.692Z,5.67
2018-12-12T08:14:10.709Z,5.67
2018-12-12T08:15:10.710Z,5.64
2018-12-12T08:16:10.743Z,5.73
2018-12-12T08:17:31.779Z,5.74
2018-12-12T08:18:10.785Z,5.76
2018-12-12T08:19:10.806Z,5.72
2018-12-12T08:20:10.809Z,5.77
2018-12-12T08:21:10.827Z,5.67
2018-12-12T08:22:10.866Z,5.70
2018-12-12T08:23:31.892Z,5.73
2018-12-12T08:24:10.896Z,5.77
2018-12-12T08:25:10.914Z,5.73
2018-12-12T08:26:10.935Z,5.74
2018-12-12T08:27:10.971Z,5.61
2018-12-12T08:28:10.969Z,5.62
2018-12-12T08:29:32.000Z,5.58
2018-12-12T08:30:11.015Z,5.61
2018-12-12T08:31:11.031Z,5.64
2018-12-12T08:32:11.064Z,5.62
2018-12-12T08:33:11.497Z,5.61
2018-12-12T08:34:11.080Z,5.70
2018-12-12T08:35:32.130Z,5.65
2018-12-12T08:36:11.125Z,5.62
2018-12-12T08:37:11.143Z,5.70
2018-12-12T08:38:11.182Z,5.72
2018-12-12T08:39:11.188Z,5.74
2018-12-12T08:40:11.212Z,5.65
2018-12-12T08:41:32.258Z,5.70
2018-12-12T08:42:11.242Z,5.61
2018-12-12T08:43:11.264Z,5.62
2018-12-12T08:44:11.288Z,5.59
2018-12-12T08:45:11.304Z,5.61
2018-12-12T08:46:11.351Z,5.77
2018-12-12T08:47:32.364Z,5.62
2018-12-12T08:48:11.388Z,5.64
2018-12-12T08:49:11.429Z,5.67
2018-12-12T08:50:11.398Z,5.73
2018-12-12T08:51:11.429Z,5.64
2018-12-12T08:52:11.482Z,5.73
2018-12-12T08:53:32.553Z,5.72
2018-12-12T08:54:11.499Z,5.73
2018-12-12T08:55:17.427Z,5.72
2018-12-12T08:56:11.527Z,5.72
2018-12-12T08:57:11.540Z,5.74
2018-12-12T08:58:11.577Z,5.76
2018-12-12T08:59:32.587Z,5.73
2018-12-12T09:00:11.587Z,5.79
2018-12-12T09:01:11.620Z,5.77
2018-12-12T09:02:11.635Z,5.76
2018-12-12T09:03:17.405Z,5.73
2018-12-12T09:04:11.678Z,5.74
2018-12-12T09:05:32.714Z,5.73
2018-12-12T09:06:11.731Z,5.76
2018-12-12T09:07:11.736Z,5.84
2018-12-12T09:08:11.744Z,5.76
2018-12-12T09:09:11.782Z,5.88
2018-12-12T09:10:11.792Z,5.81
2018-12-12T09:11:32.830Z,5.74
2018-12-12T09:12:11.838Z,5.95
2018-12-12T09:13:11.855Z,5.94
2018-12-12T09:14:11.881Z,5.94
2018-12-12T09:15:11.888Z,5.90
2018-12-12T09:16:12.036Z,5.91
2018-12-12T09:17:32.958Z,5.88
2018-12-12T09:18:11.943Z,5.88
2018-12-12T09:19:11.963Z,5.90
2018-12-12T09:20:11.994Z,5.79
2018-12-12T09:21:12.007Z,5.83
2018-12-12T09:22:12.022Z,5.80
2018-12-12T09:23:33.079Z,5.87
2018-12-12T09:24:12.053Z,5.84
2018-12-12T09:25:12.101Z,5.91
2018-12-12T09:26:12.108Z,5.97
2018-12-12T09:27:12.115Z,6.02
2018-12-12T09:28:12.152Z,5.99
2018-12-12T09:29:33.185Z,5.92
2018-12-12T09:30:12.185Z,5.94
2018-12-12T09:31:12.207Z,5.81
2018-12-12T09:32:12.213Z,5.87
2018-12-12T09:33:12.228Z,5.87
2018-12-12T09:34:12.279Z,5.87
2018-12-12T09:35:33.310Z,5.84
2018-12-12T09:36:12.314Z,5.94
2018-12-12T09:37:12.323Z,5.90
2018-12-12T09:38:12.335Z,5.95
2018-12-12T09:39:12.369Z,5.97
2018-12-12T09:40:12.376Z,5.98
2018-12-12T09:41:33.412Z,5.92
2018-12-12T09:42:12.428Z,6.01
2018-12-12T09:43:12.435Z,6.09
2018-12-12T09:44:12.493Z,6.10
2018-12-12T09:45:12.481Z,6.10
2018-12-12T09:46:12.491Z,6.26
2018-12-12T09:47:33.524Z,6.28
2018-12-12T09:48:19.038Z,6.25
2018-12-12T09:49:12.549Z,6.17
2018-12-12T09:50:12.581Z,6.17
2018-12-12T09:51:12.602Z,6.25
2018-12-12T09:52:12.609Z,6.43
2018-12-12T09:53:33.650Z,6.35
2018-12-12T09:54:12.655Z,6.46
2018-12-12T09:55:12.674Z,6.47
2018-12-12T09:56:12.700Z,6.39
2018-12-12T09:57:12.708Z,6.49
2018-12-12T09:58:12.745Z,6.53
2018-12-12T09:59:33.775Z,6.49
2018-12-12T10:00:12.787Z,6.54
2018-12-12T10:01:12.804Z,6.53
2018-12-12T10:02:12.814Z,6.54
2018-12-12T10:03:12.851Z,6.50
2018-12-12T10:04:12.861Z,6.47
2018-12-12T10:05:33.892Z,6.49
2018-12-12T10:06:12.929Z,6.47
2018-12-12T10:07:12.929Z,6.57
2018-12-12T10:08:12.919Z,6.65
2018-12-12T10:09:12.963Z,6.65
2018-12-12T10:10:12.971Z,6.60
2018-12-12T10:11:33.999Z,6.70
2018-12-12T10:12:13.009Z,6.68
2018-12-12T10:13:13.033Z,6.59
2018-12-12T10:14:13.056Z,6.59
2018-12-12T10:15:13.072Z,6.65
2018-12-12T10:16:13.088Z,6.67
2018-12-12T10:17:34.146Z,6.59
2018-12-12T10:18:13.136Z,6.65
2018-12-12T10:19:13.175Z,6.68
2018-12-12T10:20:13.174Z,6.65
2018-12-12T10:21:13.189Z,6.67
2018-12-12T10:22:13.221Z,6.65
2018-12-12T10:23:34.258Z,6.64
2018-12-12T10:24:13.245Z,6.57
2018-12-12T10:25:13.284Z,6.56
2018-12-12T10:26:13.334Z,6.60
2018-12-12T10:27:13.322Z,6.67
2018-12-12T10:28:13.342Z,6.68
2018-12-12T10:29:34.372Z,6.65
2018-12-12T10:30:13.384Z,6.65
2018-12-12T10:31:13.392Z,6.70
2018-12-12T10:32:13.429Z,6.68
2018-12-12T10:33:13.434Z,6.77
2018-12-12T10:34:13.451Z,6.75
2018-12-12T10:35:34.482Z,6.87
2018-12-12T10:36:13.539Z,6.83
2018-12-12T10:37:13.509Z,6.86
2018-12-12T10:38:13.531Z,6.87
2018-12-12T10:39:13.556Z,6.87
2018-12-12T10:40:13.583Z,6.93
2018-12-12T10:41:34.608Z,6.80
2018-12-12T10:42:13.643Z,6.90
2018-12-12T10:43:13.654Z,6.87
2018-12-12T10:44:13.657Z,6.82
2018-12-12T10:45:13.676Z,6.75
2018-12-12T10:46:13.707Z,6.87
2018-12-12T10:47:34.740Z,6.82
2018-12-12T10:48:13.750Z,6.89
2018-12-12T10:49:13.770Z,6.92
2018-12-12T10:50:13.776Z,6.90
2018-12-12T10:51:13.792Z,6.86
2018-12-12T10:52:13.830Z,6.83
2018-12-12T10:53:34.872Z,6.83
2018-12-12T10:54:13.868Z,6.82
2018-12-12T10:55:13.898Z,6.82
2018-12-12T10:56:13.914Z,6.75
2018-12-12T10:57:13.923Z,6.80
2018-12-12T10:58:13.946Z,6.74
2018-12-12T10:59:34.969Z,6.72
2018-12-12T11:00:13.989Z,6.71
2018-12-12T11:01:14.017Z,6.71
2018-12-12T11:02:14.027Z,6.83
2018-12-12T11:03:14.037Z,6.87
2018-12-12T11:04:14.078Z,6.89
2018-12-12T11:05:35.139Z,6.93
2018-12-12T11:06:14.101Z,6.82
2018-12-12T11:07:14.137Z,6.86
2018-12-12T11:08:14.136Z,6.87
2018-12-12T11:09:14.179Z,6.86
2018-12-12T11:10:14.188Z,6.80
2018-12-12T11:11:35.219Z,6.87
2018-12-12T11:12:14.228Z,6.86
2018-12-12T11:13:14.243Z,6.83
2018-12-12T11:14:14.263Z,6.85
2018-12-12T11:15:14.284Z,6.74
2018-12-12T11:16:14.312Z,6.75
2018-12-12T11:17:35.330Z,6.70
2018-12-12T11:18:14.393Z,6.65
2018-12-12T11:19:14.366Z,6.64
2018-12-12T11:20:14.402Z,6.53
2018-12-12T11:21:14.407Z,6.60
2018-12-12T11:22:14.448Z,6.64
2018-12-12T11:23:35.462Z,6.64
2018-12-12T11:24:14.464Z,6.57
2018-12-12T11:25:14.483Z,6.46
2018-12-12T11:26:14.506Z,6.44
2018-12-12T11:27:14.525Z,6.47
2018-12-12T11:28:14.562Z,6.49
2018-12-12T11:29:35.588Z,6.54
2018-12-12T11:30:14.608Z,6.53
2018-12-12T11:31:14.618Z,6.62
2018-12-12T11:32:14.622Z,6.65
2018-12-12T11:33:14.655Z,6.60
2018-12-12T11:34:14.674Z,6.62
2018-12-12T11:35:35.709Z,6.77
2018-12-12T11:36:14.719Z,6.68
2018-12-12T11:37:14.741Z,6.74
2018-12-12T11:38:14.739Z,6.78
2018-12-12T11:39:14.769Z,6.89
2018-12-12T11:40:14.779Z,6.86
2018-12-12T11:41:35.820Z,6.96
2018-12-12T11:42:14.831Z,7.25
2018-12-12T11:43:14.858Z,7.84
2018-12-12T11:44:14.881Z,7.87
2018-12-12T11:45:14.953Z,7.85
2018-12-12T11:46:14.922Z,7.75
2018-12-12T11:47:35.946Z,8.06
2018-12-12T11:48:14.939Z,8.50
2018-12-12T11:49:14.975Z,8.74
2018-12-12T11:50:14.985Z,8.89
2018-12-12T11:51:15.036Z,8.99
2018-12-12T11:52:15.036Z,9.05
2018-12-12T11:53:36.068Z,8.90
2018-12-12T11:54:15.092Z,8.71
2018-12-12T11:55:15.116Z,8.66
2018-12-12T11:56:15.170Z,8.72
2018-12-12T11:57:15.129Z,8.77
2018-12-12T11:58:15.183Z,8.82
2018-12-12T11:59:36.210Z,8.90
2018-12-12T12:00:15.217Z,8.72
2018-12-12T12:01:15.244Z,8.69
2018-12-12T12:02:15.251Z,8.75
2018-12-12T12:03:15.283Z,8.69
2018-12-12T12:04:15.285Z,8.44
2018-12-12T12:05:36.356Z,8.21
2018-12-12T12:06:15.343Z,7.91
2018-12-12T12:07:15.372Z,7.90
2018-12-12T12:08:15.393Z,7.84
2018-12-12T12:09:15.462Z,7.91
2018-12-12T12:10:15.430Z,7.83
2018-12-12T12:11:36.464Z,7.72
2018-12-12T12:12:15.489Z,7.66
2018-12-12T12:13:15.495Z,7.61
2018-12-12T12:14:15.524Z,7.50
2018-12-12T12:15:15.549Z,7.33
2018-12-12T12:16:15.552Z,7.31
2018-12-12T12:17:36.593Z,7.31
2018-12-12T12:18:15.595Z,7.19
2018-12-12T12:19:15.640Z,7.19
2018-12-12T12:20:15.643Z,7.18
2018-12-12T12:21:15.666Z,7.11
2018-12-12T12:22:15.690Z,7.04
2018-12-12T12:23:36.754Z,7.03
2018-12-12T12:24:15.762Z,7.01
2018-12-12T12:25:15.747Z,7.14
2018-12-12T12:26:15.777Z,7.07
2018-12-12T12:27:15.784Z,7.03
2018-12-12T12:28:15.806Z,7.08
2018-12-12T12:29:36.844Z,7.08
2018-12-12T12:30:15.844Z,7.13
2018-12-12T12:31:15.896Z,7.07
2018-12-12T12:32:15.895Z,7.07
2018-12-12T12:33:15.911Z,6.96
2018-12-12T12:34:15.953Z,6.96
2018-12-12T12:35:36.986Z,6.92
2018-12-12T12:36:16.003Z,6.85
2018-12-12T12:37:16.009Z,6.85
2018-12-12T12:38:16.008Z,6.85
2018-12-12T12:39:16.051Z,6.80
2018-12-12T12:40:16.059Z,6.80
2018-12-12T12:41:37.093Z,6.87
2018-12-12T12:42:16.121Z,6.82
2018-12-12T12:43:16.122Z,6.83
2018-12-12T12:44:16.154Z,6.86
2018-12-12T12:45:16.163Z,6.82
2018-12-12T12:46:16.175Z,6.89
2018-12-12T12:47:37.237Z,6.92
2018-12-12T12:48:16.222Z,6.90
2018-12-12T12:49:16.250Z,6.95
2018-12-12T12:50:16.276Z,7.01
2018-12-12T12:51:16.341Z,7.13
2018-12-12T12:52:16.308Z,7.15
2018-12-12T12:53:37.358Z,7.08
2018-12-12T12:54:16.362Z,7.14
2018-12-12T12:55:16.406Z,7.07
2018-12-12T12:56:16.378Z,7.11
2018-12-12T12:57:16.419Z,6.97
2018-12-12T12:58:16.431Z,7.04
2018-12-12T12:59:37.466Z,7.11
2018-12-12T13:00:16.470Z,7.04
2018-12-12T13:01:16.480Z,7.05
2018-12-12T13:02:16.516Z,6.87
2018-12-12T13:03:16.531Z,6.93
2018-12-12T13:04:16.839Z,6.87
2018-12-12T13:05:37.591Z,6.83
2018-12-12T13:06:16.586Z,6.86
2018-12-12T13:07:16.633Z,6.80
2018-12-12T13:08:16.646Z,6.80
2018-12-12T13:09:16.675Z,6.89
2018-12-12T13:10:16.685Z,6.80
2018-12-12T13:11:37.771Z,6.85
2018-12-12T13:12:16.816Z,6.82
2018-12-12T13:13:16.854Z,6.86
2018-12-12T13:14:16.772Z,6.83
2018-12-12T13:15:16.777Z,6.77
2018-12-12T13:16:16.795Z,6.70
2018-12-12T13:17:37.890Z,6.71
2018-12-12T13:18:16.838Z,6.68